sensor_id;sensor_type;location;lat;lon;timestamp;temperature;humidity
10662;DHT22;5379;51.034;7.006;2023-06-19T04:35:19;26.10;94.30
10662;DHT22;5379;51.034;7.006;2023-06-19T04:37:46;25.70;95.30
10662;DHT22;5379;51.034;7.006;2023-06-19T04:40:14;25.80;94.90
10662;DHT22;5379;51.034;7.006;2023-06-19T04:42:42;25.90;95.60
10662;DHT22;5379;51.034;7.006;2023-06-19T04:45:09;25.90;95.10
10662;DHT22;5379;51.034;7.006;2023-06-19T04:47:38;25.90;94.90
10662;DHT22;5379;51.034;7.006;2023-06-19T04:53:02;25.90;94.90
10662;DHT22;5379;51.034;7.006;2023-06-19T04:58:06;27.10;93.40
10662;DHT22;5379;51.034;7.006;2023-06-19T05:00:34;26.90;94.90
10662;DHT22;5379;51.034;7.006;2023-06-19T05:06:07;26.90;93.40
10662;DHT22;5379;51.034;7.006;2023-06-19T05:08:34;26.90;93.90
10662;DHT22;5379;51.034;7.006;2023-06-19T05:18:23;27.10;94.80
10662;DHT22;5379;51.034;7.006;2023-06-19T05:25:46;26.90;94.80
10662;DHT22;5379;51.034;7.006;2023-06-19T05:28:13;27.00;94.10
10662;DHT22;5379;51.034;7.006;2023-06-19T05:30:40;26.70;94.20
10662;DHT22;5379;51.034;7.006;2023-06-19T05:35:35;26.90;93.90
10662;DHT22;5379;51.034;7.006;2023-06-19T05:38:02;27.40;94.50
10662;DHT22;5379;51.034;7.006;2023-06-19T05:40:30;27.80;95.00
10662;DHT22;5379;51.034;7.006;2023-06-19T05:42:57;28.00;92.70
10662;DHT22;5379;51.034;7.006;2023-06-19T05:45:24;28.00;92.90
10662;DHT22;5379;51.034;7.006;2023-06-19T05:47:51;27.20;93.60
10662;DHT22;5379;51.034;7.006;2023-06-19T05:52:46;26.50;94.00
10662;DHT22;5379;51.034;7.006;2023-06-19T05:55:13;26.40;94.70
10662;DHT22;5379;51.034;7.006;2023-06-19T05:57:42;26.50;96.00
10662;DHT22;5379;51.034;7.006;2023-06-19T06:00:10;26.80;94.00
10662;DHT22;5379;51.034;7.006;2023-06-19T06:02:40;26.30;94.50
10662;DHT22;5379;51.034;7.006;2023-06-19T06:05:08;26.20;94.50
10662;DHT22;5379;51.034;7.006;2023-06-19T06:07:36;26.20;94.80
10662;DHT22;5379;51.034;7.006;2023-06-19T06:10:05;26.40;94.50
10662;DHT22;5379;51.034;7.006;2023-06-19T06:12:34;26.10;94.70
10662;DHT22;5379;51.034;7.006;2023-06-19T06:15:03;25.80;95.00
10662;DHT22;5379;51.034;7.006;2023-06-19T06:19:58;26.70;94.20
10662;DHT22;5379;51.034;7.006;2023-06-19T06:22:25;26.70;93.90
10662;DHT22;5379;51.034;7.006;2023-06-19T06:24:52;26.30;94.50
10662;DHT22;5379;51.034;7.006;2023-06-19T06:27:20;26.00;94.80
10662;DHT22;5379;51.034;7.006;2023-06-19T06:29:47;25.20;95.60
10662;DHT22;5379;51.034;7.006;2023-06-19T06:34:44;25.10;95.70
10662;DHT22;5379;51.034;7.006;2023-06-19T06:37:11;25.20;95.90
10662;DHT22;5379;51.034;7.006;2023-06-19T06:39:38;25.70;95.50
10662;DHT22;5379;51.034;7.006;2023-06-19T06:42:05;26.10;95.50
10662;DHT22;5379;51.034;7.006;2023-06-19T06:44:32;26.20;95.00
10662;DHT22;5379;51.034;7.006;2023-06-19T06:46:59;26.10;95.20
10662;DHT22;5379;51.034;7.006;2023-06-19T06:54:25;26.40;94.40
10662;DHT22;5379;51.034;7.006;2023-06-19T06:59:26;27.10;93.90
10662;DHT22;5379;51.034;7.006;2023-06-19T07:01:54;27.10;94.10
10662;DHT22;5379;51.034;7.006;2023-06-19T07:04:21;27.20;93.80
10662;DHT22;5379;51.034;7.006;2023-06-19T07:06:50;26.10;94.40
10662;DHT22;5379;51.034;7.006;2023-06-19T07:09:18;26.00;94.70
10662;DHT22;5379;51.034;7.006;2023-06-19T07:14:14;25.30;95.30
10662;DHT22;5379;51.034;7.006;2023-06-19T07:16:43;25.30;95.60
10662;DHT22;5379;51.034;7.006;2023-06-19T07:19:10;25.30;95.80
10662;DHT22;5379;51.034;7.006;2023-06-19T07:21:38;25.90;95.30
10662;DHT22;5379;51.034;7.006;2023-06-19T07:24:07;25.60;95.60
10662;DHT22;5379;51.034;7.006;2023-06-19T07:26:34;25.60;95.60
10662;DHT22;5379;51.034;7.006;2023-06-19T07:31:29;25.80;95.20
10662;DHT22;5379;51.034;7.006;2023-06-19T07:33:56;25.80;95.10
10662;DHT22;5379;51.034;7.006;2023-06-19T07:38:52;25.90;95.10
10662;DHT22;5379;51.034;7.006;2023-06-19T07:41:20;26.00;94.60
10662;DHT22;5379;51.034;7.006;2023-06-19T07:43:47;26.00;94.90
10662;DHT22;5379;51.034;7.006;2023-06-19T07:46:14;25.20;96.10
10662;DHT22;5379;51.034;7.006;2023-06-19T07:48:42;25.40;95.80
10662;DHT22;5379;51.034;7.006;2023-06-19T07:51:09;25.50;95.80
10662;DHT22;5379;51.034;7.006;2023-06-19T07:53:36;25.60;95.40
10662;DHT22;5379;51.034;7.006;2023-06-19T07:56:05;25.60;95.50
10662;DHT22;5379;51.034;7.006;2023-06-19T07:58:33;25.80;95.30
10662;DHT22;5379;51.034;7.006;2023-06-19T08:01:00;25.30;95.70
10662;DHT22;5379;51.034;7.006;2023-06-19T08:03:27;25.00;96.00
10662;DHT22;5379;51.034;7.006;2023-06-19T08:05:54;24.70;96.50
10662;DHT22;5379;51.034;7.006;2023-06-19T08:08:21;24.60;96.40
10662;DHT22;5379;51.034;7.006;2023-06-19T08:10:48;24.40;96.80
10662;DHT22;5379;51.034;7.006;2023-06-19T08:13:15;24.80;96.50
10662;DHT22;5379;51.034;7.006;2023-06-19T08:15:43;25.00;96.10
10662;DHT22;5379;51.034;7.006;2023-06-19T08:18:11;24.70;96.60
10662;DHT22;5379;51.034;7.006;2023-06-19T08:20:38;25.00;98.30
10662;DHT22;5379;51.034;7.006;2023-06-19T08:23:05;25.90;96.40
10662;DHT22;5379;51.034;7.006;2023-06-19T08:25:32;26.00;95.20
10662;DHT22;5379;51.034;7.006;2023-06-19T08:27:59;25.50;95.80
10662;DHT22;5379;51.034;7.006;2023-06-19T08:30:26;25.40;95.60
10662;DHT22;5379;51.034;7.006;2023-06-19T08:32:54;25.40;95.80
10662;DHT22;5379;51.034;7.006;2023-06-19T08:35:21;25.90;96.00
10662;DHT22;5379;51.034;7.006;2023-06-19T08:37:48;26.40;94.80
10662;DHT22;5379;51.034;7.006;2023-06-19T08:40:15;26.10;96.40
10662;DHT22;5379;51.034;7.006;2023-06-19T08:42:42;26.10;95.10
10662;DHT22;5379;51.034;7.006;2023-06-19T08:45:09;26.20;95.40
10662;DHT22;5379;51.034;7.006;2023-06-19T08:47:36;25.80;95.30
10662;DHT22;5379;51.034;7.006;2023-06-19T08:50:06;25.40;95.80
10662;DHT22;5379;51.034;7.006;2023-06-19T08:52:33;25.50;95.80
10662;DHT22;5379;51.034;7.006;2023-06-19T08:55:00;25.60;95.80
10662;DHT22;5379;51.034;7.006;2023-06-19T08:57:34;25.80;95.60
10662;DHT22;5379;51.034;7.006;2023-06-19T09:00:01;25.40;96.00
10662;DHT22;5379;51.034;7.006;2023-06-19T09:02:43;25.20;96.10
10662;DHT22;5379;51.034;7.006;2023-06-19T09:05:15;24.80;96.60
10662;DHT22;5379;51.034;7.006;2023-06-19T09:07:43;24.90;96.40
10662;DHT22;5379;51.034;7.006;2023-06-19T09:10:17;24.80;96.50
10662;DHT22;5379;51.034;7.006;2023-06-19T09:12:55;24.60;96.80
10662;DHT22;5379;51.034;7.006;2023-06-19T09:15:23;24.70;96.50
10662;DHT22;5379;51.034;7.006;2023-06-19T09:18:00;24.80;96.70
10662;DHT22;5379;51.034;7.006;2023-06-19T09:20:29;25.70;95.70
10662;DHT22;5379;51.034;7.006;2023-06-19T09:22:57;25.70;95.90
10662;DHT22;5379;51.034;7.006;2023-06-19T09:25:24;26.20;95.60
10662;DHT22;5379;51.034;7.006;2023-06-19T09:27:52;26.00;95.30
10662;DHT22;5379;51.034;7.006;2023-06-19T09:30:20;26.10;95.30
10662;DHT22;5379;51.034;7.006;2023-06-19T09:32:47;25.90;95.40
10662;DHT22;5379;51.034;7.006;2023-06-19T09:35:14;25.90;95.70
10662;DHT22;5379;51.034;7.006;2023-06-19T09:37:44;25.60;95.60
10662;DHT22;5379;51.034;7.006;2023-06-19T09:40:12;25.30;96.20
10662;DHT22;5379;51.034;7.006;2023-06-19T09:42:40;25.20;96.00
10662;DHT22;5379;51.034;7.006;2023-06-19T09:45:09;24.80;96.60
10662;DHT22;5379;51.034;7.006;2023-06-19T09:47:38;24.40;96.90
10662;DHT22;5379;51.034;7.006;2023-06-19T09:50:06;24.50;97.20
10662;DHT22;5379;51.034;7.006;2023-06-19T09:52:34;24.50;96.90
10662;DHT22;5379;51.034;7.006;2023-06-19T09:55:05;24.30;97.00
10662;DHT22;5379;51.034;7.006;2023-06-19T09:57:34;24.50;97.70
10662;DHT22;5379;51.034;7.006;2023-06-19T10:00:03;24.70;97.20
10662;DHT22;5379;51.034;7.006;2023-06-19T10:02:38;25.20;96.40
10662;DHT22;5379;51.034;7.006;2023-06-19T10:05:05;25.70;95.80
10662;DHT22;5379;51.034;7.006;2023-06-19T10:07:35;26.00;96.00
10662;DHT22;5379;51.034;7.006;2023-06-19T10:10:05;26.00;95.50
10662;DHT22;5379;51.034;7.006;2023-06-19T10:12:50;25.90;95.50
10662;DHT22;5379;51.034;7.006;2023-06-19T10:15:19;26.00;95.70
10662;DHT22;5379;51.034;7.006;2023-06-19T10:17:49;26.10;95.70
10662;DHT22;5379;51.034;7.006;2023-06-19T10:20:25;26.00;95.80
10662;DHT22;5379;51.034;7.006;2023-06-19T10:22:57;26.40;94.90
10662;DHT22;5379;51.034;7.006;2023-06-19T10:25:28;26.20;95.20
10662;DHT22;5379;51.034;7.006;2023-06-19T10:27:57;25.70;95.80
10662;DHT22;5379;51.034;7.006;2023-06-19T10:30:24;25.90;96.20
10662;DHT22;5379;51.034;7.006;2023-06-19T10:32:51;25.90;95.50
10662;DHT22;5379;51.034;7.006;2023-06-19T10:35:19;26.20;95.10
10662;DHT22;5379;51.034;7.006;2023-06-19T10:37:50;26.00;95.60
10662;DHT22;5379;51.034;7.006;2023-06-19T10:40:17;26.60;95.20
10662;DHT22;5379;51.034;7.006;2023-06-19T10:42:46;26.10;94.90
10662;DHT22;5379;51.034;7.006;2023-06-19T10:45:14;25.20;96.00
10662;DHT22;5379;51.034;7.006;2023-06-19T10:47:43;25.20;96.30
10662;DHT22;5379;51.034;7.006;2023-06-19T10:50:12;25.50;95.80
10662;DHT22;5379;51.034;7.006;2023-06-19T10:52:43;26.00;95.70
10662;DHT22;5379;51.034;7.006;2023-06-19T10:55:11;26.10;95.30
10662;DHT22;5379;51.034;7.006;2023-06-19T10:57:39;26.30;95.10
10662;DHT22;5379;51.034;7.006;2023-06-19T11:00:08;26.00;95.30
10662;DHT22;5379;51.034;7.006;2023-06-19T11:02:39;26.30;95.00
10662;DHT22;5379;51.034;7.006;2023-06-19T11:05:09;26.30;95.10
10662;DHT22;5379;51.034;7.006;2023-06-19T11:10:06;25.40;95.70
10662;DHT22;5379;51.034;7.006;2023-06-19T11:12:33;25.60;96.30
10662;DHT22;5379;51.034;7.006;2023-06-19T11:15:03;26.00;95.50
10662;DHT22;5379;51.034;7.006;2023-06-19T11:17:32;26.10;95.30
10662;DHT22;5379;51.034;7.006;2023-06-19T11:20:00;26.30;95.50
10662;DHT22;5379;51.034;7.006;2023-06-19T11:22:39;25.90;95.30
10662;DHT22;5379;51.034;7.006;2023-06-19T11:25:08;25.70;95.50
10662;DHT22;5379;51.034;7.006;2023-06-19T11:27:37;25.20;96.30
10662;DHT22;5379;51.034;7.006;2023-06-19T11:30:06;25.20;96.40
10662;DHT22;5379;51.034;7.006;2023-06-19T11:32:37;25.40;96.00
10662;DHT22;5379;51.034;7.006;2023-06-19T11:35:09;24.50;96.70
10662;DHT22;5379;51.034;7.006;2023-06-19T11:37:39;24.30;97.00
10662;DHT22;5379;51.034;7.006;2023-06-19T11:40:07;24.20;97.00
10662;DHT22;5379;51.034;7.006;2023-06-19T11:42:47;24.10;97.20
10662;DHT22;5379;51.034;7.006;2023-06-19T11:47:44;25.20;95.90
10662;DHT22;5379;51.034;7.006;2023-06-19T11:50:13;24.80;96.20
10662;DHT22;5379;51.034;7.006;2023-06-19T11:52:42;24.70;96.80
10662;DHT22;5379;51.034;7.006;2023-06-19T11:55:09;25.00;96.50
10662;DHT22;5379;51.034;7.006;2023-06-19T11:57:36;25.00;96.30
10662;DHT22;5379;51.034;7.006;2023-06-19T12:00:13;24.30;96.90
10662;DHT22;5379;51.034;7.006;2023-06-19T12:02:40;23.90;97.30
10662;DHT22;5379;51.034;7.006;2023-06-19T12:05:09;24.40;97.10
10662;DHT22;5379;51.034;7.006;2023-06-19T12:07:36;25.00;97.20
10662;DHT22;5379;51.034;7.006;2023-06-19T12:10:04;25.00;96.60
10662;DHT22;5379;51.034;7.006;2023-06-19T12:12:35;24.10;97.30
10662;DHT22;5379;51.034;7.006;2023-06-19T12:15:03;24.40;97.20
10662;DHT22;5379;51.034;7.006;2023-06-19T12:17:31;24.90;96.90
10662;DHT22;5379;51.034;7.006;2023-06-19T12:19:58;25.40;96.00
10662;DHT22;5379;51.034;7.006;2023-06-19T12:22:26;25.10;96.40
10662;DHT22;5379;51.034;7.006;2023-06-19T12:24:54;25.40;95.90
10662;DHT22;5379;51.034;7.006;2023-06-19T12:27:21;26.00;95.40
10662;DHT22;5379;51.034;7.006;2023-06-19T12:29:48;25.60;95.80
10662;DHT22;5379;51.034;7.006;2023-06-19T12:32:14;25.20;96.40
10662;DHT22;5379;51.034;7.006;2023-06-19T12:34:41;25.20;96.40
10662;DHT22;5379;51.034;7.006;2023-06-19T12:37:12;26.00;96.30
10662;DHT22;5379;51.034;7.006;2023-06-19T12:39:42;26.70;94.80
10662;DHT22;5379;51.034;7.006;2023-06-19T12:42:09;26.80;94.70
10662;DHT22;5379;51.034;7.006;2023-06-19T12:44:37;27.00;94.80
10662;DHT22;5379;51.034;7.006;2023-06-19T12:47:05;25.90;95.40
10662;DHT22;5379;51.034;7.006;2023-06-19T12:49:32;25.40;95.80
10662;DHT22;5379;51.034;7.006;2023-06-19T12:51:59;25.30;96.20
10662;DHT22;5379;51.034;7.006;2023-06-19T12:54:26;25.60;95.90
10662;DHT22;5379;51.034;7.006;2023-06-19T12:56:55;25.80;95.60
10662;DHT22;5379;51.034;7.006;2023-06-19T12:59:22;25.90;95.50
10662;DHT22;5379;51.034;7.006;2023-06-19T13:01:49;25.30;96.00
10662;DHT22;5379;51.034;7.006;2023-06-19T13:04:16;25.00;96.40
10662;DHT22;5379;51.034;7.006;2023-06-19T13:06:43;25.00;96.40
10662;DHT22;5379;51.034;7.006;2023-06-19T13:09:10;24.70;96.60
10662;DHT22;5379;51.034;7.006;2023-06-19T13:11:37;25.00;97.00
10662;DHT22;5379;51.034;7.006;2023-06-19T13:14:05;25.70;96.10
10662;DHT22;5379;51.034;7.006;2023-06-19T13:16:32;26.00;95.70
10662;DHT22;5379;51.034;7.006;2023-06-19T13:18:59;26.10;95.50
10662;DHT22;5379;51.034;7.006;2023-06-19T13:21:26;26.30;95.10
10662;DHT22;5379;51.034;7.006;2023-06-19T13:27:08;24.30;97.10
10662;DHT22;5379;51.034;7.006;2023-06-19T13:34:54;24.90;96.60
10662;DHT22;5379;51.034;7.006;2023-06-19T13:40:09;25.10;96.10
10662;DHT22;5379;51.034;7.006;2023-06-19T13:42:36;25.00;96.60
10662;DHT22;5379;51.034;7.006;2023-06-19T13:45:06;25.50;96.10
10662;DHT22;5379;51.034;7.006;2023-06-19T13:47:36;26.20;96.00
10662;DHT22;5379;51.034;7.006;2023-06-19T13:50:04;26.60;95.00
10662;DHT22;5379;51.034;7.006;2023-06-19T13:52:31;26.20;95.30
10662;DHT22;5379;51.034;7.006;2023-06-19T13:54:58;25.70;95.70
10662;DHT22;5379;51.034;7.006;2023-06-19T13:59:54;26.00;95.20
10662;DHT22;5379;51.034;7.006;2023-06-19T14:02:22;25.80;95.20
10662;DHT22;5379;51.034;7.006;2023-06-19T14:07:16;25.30;96.20
10662;DHT22;5379;51.034;7.006;2023-06-19T14:09:45;25.10;96.50
10662;DHT22;5379;51.034;7.006;2023-06-19T14:12:13;25.70;96.10
10662;DHT22;5379;51.034;7.006;2023-06-19T14:14:43;26.10;95.60
10662;DHT22;5379;51.034;7.006;2023-06-19T14:19:38;26.30;94.90
10662;DHT22;5379;51.034;7.006;2023-06-19T14:24:33;25.40;95.80
10662;DHT22;5379;51.034;7.006;2023-06-19T14:27:00;24.90;96.50
10662;DHT22;5379;51.034;7.006;2023-06-19T14:29:27;25.20;96.50
10662;DHT22;5379;51.034;7.006;2023-06-19T14:31:54;26.20;95.20
10662;DHT22;5379;51.034;7.006;2023-06-19T14:34:21;27.40;94.40
10662;DHT22;5379;51.034;7.006;2023-06-19T14:36:52;27.60;93.90
10662;DHT22;5379;51.034;7.006;2023-06-19T14:39:18;27.10;94.20
10662;DHT22;5379;51.034;7.006;2023-06-19T14:41:45;26.10;95.30
10662;DHT22;5379;51.034;7.006;2023-06-19T14:44:12;25.70;95.60
10662;DHT22;5379;51.034;7.006;2023-06-19T14:46:40;26.20;95.50
10662;DHT22;5379;51.034;7.006;2023-06-19T14:49:09;26.70;95.10
10662;DHT22;5379;51.034;7.006;2023-06-19T14:51:36;26.40;94.90
10662;DHT22;5379;51.034;7.006;2023-06-19T14:54:05;26.30;95.40
10662;DHT22;5379;51.034;7.006;2023-06-19T14:56:31;26.20;95.20
10662;DHT22;5379;51.034;7.006;2023-06-19T14:58:58;25.60;95.60
10662;DHT22;5379;51.034;7.006;2023-06-19T15:01:25;25.30;96.10
10662;DHT22;5379;51.034;7.006;2023-06-19T15:03:52;26.10;95.80
10662;DHT22;5379;51.034;7.006;2023-06-19T15:06:19;25.80;95.50
10662;DHT22;5379;51.034;7.006;2023-06-19T15:08:46;24.70;96.30
10662;DHT22;5379;51.034;7.006;2023-06-19T15:11:15;25.50;96.00
10662;DHT22;5379;51.034;7.006;2023-06-19T15:13:42;25.50;96.20
10662;DHT22;5379;51.034;7.006;2023-06-19T15:18:37;25.70;95.60
10662;DHT22;5379;51.034;7.006;2023-06-19T15:21:04;25.40;96.10
10662;DHT22;5379;51.034;7.006;2023-06-19T15:23:32;25.50;96.00
10662;DHT22;5379;51.034;7.006;2023-06-19T15:25:59;25.40;96.00
10662;DHT22;5379;51.034;7.006;2023-06-19T15:28:28;25.40;96.10
10662;DHT22;5379;51.034;7.006;2023-06-19T15:30:54;25.20;96.40
10662;DHT22;5379;51.034;7.006;2023-06-19T15:33:21;25.30;96.20
10662;DHT22;5379;51.034;7.006;2023-06-19T15:35:48;25.70;95.40
10662;DHT22;5379;51.034;7.006;2023-06-19T15:38:15;26.60;94.90
10662;DHT22;5379;51.034;7.006;2023-06-19T15:40:42;26.30;95.20
10662;DHT22;5379;51.034;7.006;2023-06-19T15:43:09;25.90;95.60
10662;DHT22;5379;51.034;7.006;2023-06-19T15:45:38;25.60;95.90
10662;DHT22;5379;51.034;7.006;2023-06-19T15:48:05;25.20;96.20
10662;DHT22;5379;51.034;7.006;2023-06-19T15:50:32;25.20;96.10
10662;DHT22;5379;51.034;7.006;2023-06-19T15:52:59;25.20;96.40
10662;DHT22;5379;51.034;7.006;2023-06-19T15:55:26;25.20;96.50
10662;DHT22;5379;51.034;7.006;2023-06-19T15:57:53;25.70;96.10
10662;DHT22;5379;51.034;7.006;2023-06-19T16:00:20;25.70;96.60
10662;DHT22;5379;51.034;7.006;2023-06-19T16:02:49;26.30;94.50
10662;DHT22;5379;51.034;7.006;2023-06-19T16:05:16;27.30;95.30
10662;DHT22;5379;51.034;7.006;2023-06-19T16:07:43;26.50;95.90
10662;DHT22;5379;51.034;7.006;2023-06-19T16:10:10;26.60;96.00
10662;DHT22;5379;51.034;7.006;2023-06-19T16:12:37;27.10;95.50
10662;DHT22;5379;51.034;7.006;2023-06-19T16:15:05;27.00;95.20
10662;DHT22;5379;51.034;7.006;2023-06-19T16:17:34;27.00;95.00
10662;DHT22;5379;51.034;7.006;2023-06-19T16:20:05;26.80;95.00
10662;DHT22;5379;51.034;7.006;2023-06-19T16:22:32;26.30;95.40
10662;DHT22;5379;51.034;7.006;2023-06-19T16:24:59;26.40;95.70
10662;DHT22;5379;51.034;7.006;2023-06-19T16:27:26;27.20;93.30
10662;DHT22;5379;51.034;7.006;2023-06-19T16:29:53;28.00;93.60
10662;DHT22;5379;51.034;7.006;2023-06-19T16:32:20;28.20;93.20
10662;DHT22;5379;51.034;7.006;2023-06-19T16:34:47;28.70;92.00
10662;DHT22;5379;51.034;7.006;2023-06-19T16:37:16;28.80;92.70
10662;DHT22;5379;51.034;7.006;2023-06-19T16:39:43;27.80;93.50
10662;DHT22;5379;51.034;7.006;2023-06-19T16:42:10;27.10;94.40
10662;DHT22;5379;51.034;7.006;2023-06-19T16:44:38;26.70;94.90
10662;DHT22;5379;51.034;7.006;2023-06-19T16:47:06;26.90;95.00
10662;DHT22;5379;51.034;7.006;2023-06-19T16:49:33;27.20;94.50
10662;DHT22;5379;51.034;7.006;2023-06-19T16:52:00;27.20;94.70
10662;DHT22;5379;51.034;7.006;2023-06-19T16:54:28;27.20;94.70
10662;DHT22;5379;51.034;7.006;2023-06-19T16:56:55;26.90;94.50
10662;DHT22;5379;51.034;7.006;2023-06-19T16:59:22;26.60;95.40
10662;DHT22;5379;51.034;7.006;2023-06-19T17:01:49;26.60;95.10
10662;DHT22;5379;51.034;7.006;2023-06-19T17:04:16;27.20;94.70
10662;DHT22;5379;51.034;7.006;2023-06-19T17:06:43;27.00;94.40
10662;DHT22;5379;51.034;7.006;2023-06-19T17:09:10;26.50;94.90
10662;DHT22;5379;51.034;7.006;2023-06-19T17:11:38;26.90;93.60
10662;DHT22;5379;51.034;7.006;2023-06-19T17:14:06;27.70;92.70
10662;DHT22;5379;51.034;7.006;2023-06-19T17:16:33;28.60;93.30
10662;DHT22;5379;51.034;7.006;2023-06-19T17:18:59;28.30;93.30
10662;DHT22;5379;51.034;7.006;2023-06-19T17:21:26;28.70;93.10
10662;DHT22;5379;51.034;7.006;2023-06-19T17:23:53;28.70;91.70
10662;DHT22;5379;51.034;7.006;2023-06-19T17:26:20;28.60;92.70
10662;DHT22;5379;51.034;7.006;2023-06-19T17:28:48;27.90;93.40
10662;DHT22;5379;51.034;7.006;2023-06-19T17:31:15;27.40;94.30
10662;DHT22;5379;51.034;7.006;2023-06-19T17:33:42;24.80;93.80
10662;DHT22;5379;51.034;7.006;2023-06-19T17:36:10;28.00;94.40
10662;DHT22;5379;51.034;7.006;2023-06-19T17:41:06;29.00;92.90
10662;DHT22;5379;51.034;7.006;2023-06-19T17:43:33;29.20;93.00
10662;DHT22;5379;51.034;7.006;2023-06-19T17:46:02;29.30;92.20
10662;DHT22;5379;51.034;7.006;2023-06-19T17:48:29;29.60;92.50
10662;DHT22;5379;51.034;7.006;2023-06-19T17:50:56;29.80;92.00
10662;DHT22;5379;51.034;7.006;2023-06-19T17:53:23;29.80;91.00
10662;DHT22;5379;51.034;7.006;2023-06-19T17:55:50;29.90;90.60
10662;DHT22;5379;51.034;7.006;2023-06-19T17:58:17;30.00;90.10
10662;DHT22;5379;51.034;7.006;2023-06-19T18:00:44;30.00;89.40
10662;DHT22;5379;51.034;7.006;2023-06-19T18:03:12;30.00;89.50
10662;DHT22;5379;51.034;7.006;2023-06-19T18:05:39;30.60;91.00
10662;DHT22;5379;51.034;7.006;2023-06-19T18:08:06;30.80;91.30
10662;DHT22;5379;51.034;7.006;2023-06-19T18:10:33;30.30;89.30
10662;DHT22;5379;51.034;7.006;2023-06-19T18:13:00;30.30;89.90
10662;DHT22;5379;51.034;7.006;2023-06-19T18:15:28;30.40;90.20
10662;DHT22;5379;51.034;7.006;2023-06-19T18:17:55;30.50;89.80
10662;DHT22;5379;51.034;7.006;2023-06-19T18:20:23;30.40;89.80
10662;DHT22;5379;51.034;7.006;2023-06-19T18:22:50;30.40;89.80
10662;DHT22;5379;51.034;7.006;2023-06-19T18:25:17;30.70;90.60
10662;DHT22;5379;51.034;7.006;2023-06-19T18:27:44;30.40;89.50
10662;DHT22;5379;51.034;7.006;2023-06-19T18:30:11;30.60;90.70
10662;DHT22;5379;51.034;7.006;2023-06-19T18:32:38;30.50;90.00
10662;DHT22;5379;51.034;7.006;2023-06-19T18:35:05;30.40;89.70
10662;DHT22;5379;51.034;7.006;2023-06-19T18:37:34;30.50;88.70
10662;DHT22;5379;51.034;7.006;2023-06-19T18:40:00;30.50;89.10
10662;DHT22;5379;51.034;7.006;2023-06-19T18:42:28;30.50;89.40
10662;DHT22;5379;51.034;7.006;2023-06-19T18:44:56;30.30;89.30
10662;DHT22;5379;51.034;7.006;2023-06-19T18:47:23;30.70;90.40
10662;DHT22;5379;51.034;7.006;2023-06-19T18:49:50;30.50;89.00
10662;DHT22;5379;51.034;7.006;2023-06-19T18:52:17;30.60;90.70
10662;DHT22;5379;51.034;7.006;2023-06-19T18:54:46;30.60;89.40
10662;DHT22;5379;51.034;7.006;2023-06-19T18:57:12;30.70;90.00
10662;DHT22;5379;51.034;7.006;2023-06-19T18:59:39;30.80;90.70
10662;DHT22;5379;51.034;7.006;2023-06-19T19:02:06;30.50;90.60
10662;DHT22;5379;51.034;7.006;2023-06-19T19:04:34;30.40;90.10
10662;DHT22;5379;51.034;7.006;2023-06-19T19:07:03;30.30;89.20
10662;DHT22;5379;51.034;7.006;2023-06-19T19:09:30;30.50;89.50
10662;DHT22;5379;51.034;7.006;2023-06-19T19:11:58;30.30;90.10
10662;DHT22;5379;51.034;7.006;2023-06-19T19:14:25;30.30;89.70
10662;DHT22;5379;51.034;7.006;2023-06-19T19:16:52;30.40;89.30
10662;DHT22;5379;51.034;7.006;2023-06-19T19:19:19;30.40;91.00
10662;DHT22;5379;51.034;7.006;2023-06-19T19:21:46;30.40;89.50
10662;DHT22;5379;51.034;7.006;2023-06-19T19:24:13;30.30;89.60
10662;DHT22;5379;51.034;7.006;2023-06-19T19:26:42;30.60;90.30
10662;DHT22;5379;51.034;7.006;2023-06-19T19:29:10;30.60;90.50
10662;DHT22;5379;51.034;7.006;2023-06-19T19:31:37;30.60;91.00
10662;DHT22;5379;51.034;7.006;2023-06-19T19:34:04;30.60;91.30
10662;DHT22;5379;51.034;7.006;2023-06-19T19:36:31;30.30;90.30
10662;DHT22;5379;51.034;7.006;2023-06-19T19:38:58;30.20;90.10
10662;DHT22;5379;51.034;7.006;2023-06-19T19:41:24;29.90;90.00
10662;DHT22;5379;51.034;7.006;2023-06-19T19:43:51;30.00;89.70
10662;DHT22;5379;51.034;7.006;2023-06-19T19:46:20;30.30;90.70
10662;DHT22;5379;51.034;7.006;2023-06-19T19:48:47;30.40;90.40
10662;DHT22;5379;51.034;7.006;2023-06-19T19:51:14;30.20;89.00
10662;DHT22;5379;51.034;7.006;2023-06-19T19:53:41;30.00;89.50
10662;DHT22;5379;51.034;7.006;2023-06-19T19:56:08;29.80;89.60
10662;DHT22;5379;51.034;7.006;2023-06-19T19:58:35;29.90;90.10
10662;DHT22;5379;51.034;7.006;2023-06-19T20:01:03;30.30;90.20
10662;DHT22;5379;51.034;7.006;2023-06-19T20:03:31;30.40;90.20
10662;DHT22;5379;51.034;7.006;2023-06-19T20:06:01;30.20;90.40
10662;DHT22;5379;51.034;7.006;2023-06-19T20:08:28;30.40;90.90
10662;DHT22;5379;51.034;7.006;2023-06-19T20:10:55;30.50;91.00
10662;DHT22;5379;51.034;7.006;2023-06-19T20:15:49;30.40;90.60
10662;DHT22;5379;51.034;7.006;2023-06-19T20:18:16;30.50;90.90
10662;DHT22;5379;51.034;7.006;2023-06-19T20:20:45;30.10;90.60
10662;DHT22;5379;51.034;7.006;2023-06-19T20:23:11;30.30;91.30
10662;DHT22;5379;51.034;7.006;2023-06-19T20:25:38;28.40;90.30
10662;DHT22;5379;51.034;7.006;2023-06-19T20:28:05;30.20;91.40
10662;DHT22;5379;51.034;7.006;2023-06-19T20:33:03;30.30;90.90
10662;DHT22;5379;51.034;7.006;2023-06-19T20:35:30;29.90;90.10
10662;DHT22;5379;51.034;7.006;2023-06-19T20:37:58;29.80;90.50
10662;DHT22;5379;51.034;7.006;2023-06-19T20:40:25;29.70;90.50
10662;DHT22;5379;51.034;7.006;2023-06-19T20:42:53;30.00;90.60
10662;DHT22;5379;51.034;7.006;2023-06-19T20:45:20;30.10;90.40
10662;DHT22;5379;51.034;7.006;2023-06-19T20:47:51;30.10;91.00
10662;DHT22;5379;51.034;7.006;2023-06-19T20:50:18;30.20;91.00
10662;DHT22;5379;51.034;7.006;2023-06-19T20:52:45;30.00;90.00
10662;DHT22;5379;51.034;7.006;2023-06-19T20:55:14;29.70;90.40
10662;DHT22;5379;51.034;7.006;2023-06-19T20:57:41;29.60;90.50
10662;DHT22;5379;51.034;7.006;2023-06-19T21:00:09;29.80;90.30
10662;DHT22;5379;51.034;7.006;2023-06-19T21:02:38;29.70;90.60
10662;DHT22;5379;51.034;7.006;2023-06-19T21:05:05;29.50;90.60
10662;DHT22;5379;51.034;7.006;2023-06-19T21:07:32;29.50;90.90
10662;DHT22;5379;51.034;7.006;2023-06-19T21:09:59;29.30;90.80
10662;DHT22;5379;51.034;7.006;2023-06-19T21:12:28;29.20;90.90
10662;DHT22;5379;51.034;7.006;2023-06-19T21:14:54;29.20;90.80
10662;DHT22;5379;51.034;7.006;2023-06-19T21:17:22;28.90;90.90
10662;DHT22;5379;51.034;7.006;2023-06-19T21:19:48;29.40;91.30
10662;DHT22;5379;51.034;7.006;2023-06-19T21:22:15;28.90;90.90
10662;DHT22;5379;51.034;7.006;2023-06-19T21:24:42;28.90;91.60
10662;DHT22;5379;51.034;7.006;2023-06-19T21:27:09;28.90;91.10
10662;DHT22;5379;51.034;7.006;2023-06-19T21:29:38;28.70;91.10
10662;DHT22;5379;51.034;7.006;2023-06-19T21:32:05;28.70;91.40
10662;DHT22;5379;51.034;7.006;2023-06-19T21:34:33;28.90;91.40
10662;DHT22;5379;51.034;7.006;2023-06-19T21:37:00;29.00;91.30
10662;DHT22;5379;51.034;7.006;2023-06-19T21:39:27;29.00;91.50
10662;DHT22;5379;51.034;7.006;2023-06-19T21:41:54;29.60;91.70
10662;DHT22;5379;51.034;7.006;2023-06-19T21:44:20;29.60;91.30